Time;durP1;ratioP1;P1;durP2;ratioP2;P2;SDS_P1;SDS_P2;PMS_P1;PMS_P2;Temp;Humidity;BMP_temperature;BMP_pressure;BME280_temperature;BME280_humidity;BME280_pressure;Samples;Min_cycle;Max_cycle;Signal;HPM_P1;HPM_P2
2022/03/29 00:01:03;;;;;;;9.43;6.97;;;9.30;77.20;;;;;;5050109;28;20536;-45
2022/03/29 00:03:30;;;;;;;9.63;7.77;;;9.10;76.70;;;;;;5051125;28;20477;-44
2022/03/29 00:05:59;;;;;;;9.07;7.50;;;9.10;77.10;;;;;;5050917;28;20973;-46
2022/03/29 00:08:25;;;;;;;8.27;6.63;;;9.00;77.00;;;;;;5050426;28;20540;-45
2022/03/29 00:10:52;;;;;;;8.27;7.33;;;8.40;77.90;;;;;;5050608;28;20529;-44
2022/03/29 00:13:19;;;;;;;7.97;7.27;;;8.10;80.40;;;;;;5050719;28;20623;-44
2022/03/29 00:15:46;;;;;;;8.57;7.50;;;8.10;81.00;;;;;;5050680;28;20485;-45
2022/03/29 00:18:13;;;;;;;12.10;7.00;;;8.30;79.90;;;;;;5050665;28;21105;-44
2022/03/29 00:20:40;;;;;;;10.77;7.47;;;8.50;79.60;;;;;;5050734;28;20621;-47
2022/03/29 00:23:09;;;;;;;7.97;7.00;;;8.70;80.40;;;;;;5050892;28;20520;-44
2022/03/29 00:25:36;;;;;;;8.37;6.60;;;8.70;78.80;;;;;;5050512;28;20883;-44
2022/03/29 00:28:02;;;;;;;10.00;7.20;;;8.50;79.30;;;;;;5050793;28;20467;-48
2022/03/29 00:30:30;;;;;;;10.00;7.33;;;8.50;79.60;;;;;;5050623;28;20978;-45
2022/03/29 00:32:57;;;;;;;7.87;7.17;;;8.40;80.30;;;;;;5050608;28;20559;-44
2022/03/29 00:35:24;;;;;;;9.53;8.13;;;8.20;80.50;;;;;;5050560;28;20966;-44
2022/03/29 00:37:53;;;;;;;8.30;7.00;;;8.40;82.10;;;;;;5050555;28;20847;-44
2022/03/29 00:40:21;;;;;;;10.07;6.73;;;8.60;81.20;;;;;;5050469;28;20528;-44
2022/03/29 00:42:48;;;;;;;7.57;6.87;;;8.40;80.20;;;;;;5050389;28;20425;-45
2022/03/29 00:45:16;;;;;;;7.70;7.00;;;8.40;80.90;;;;;;5052466;28;20473;-44
2022/03/29 00:47:43;;;;;;;11.77;6.53;;;8.40;80.80;;;;;;5054154;28;20552;-45
2022/03/29 00:50:11;;;;;;;9.57;7.00;;;8.30;80.90;;;;;;5053830;28;20827;-44
2022/03/29 00:52:39;;;;;;;10.60;7.87;;;8.40;81.50;;;;;;5054052;28;20815;-44
2022/03/29 00:55:08;;;;;;;9.93;8.20;;;8.50;80.90;;;;;;5053981;28;20950;-47
2022/03/29 00:57:37;;;;;;;10.30;7.60;;;8.40;79.80;;;;;;5054003;28;20497;-47
2022/03/29 01:00:06;;;;;;;10.47;8.30;;;8.20;80.80;;;;;;5053801;28;20469;-44
2022/03/29 01:02:33;;;;;;;9.47;8.23;;;8.10;82.00;;;;;;5053612;28;20446;-44
2022/03/29 01:05:00;;;;;;;8.57;7.63;;;8.30;82.30;;;;;;5053737;28;20469;-45
2022/03/29 01:07:28;;;;;;;8.73;6.90;;;8.40;81.10;;;;;;5053625;28;20491;-44
2022/03/29 01:09:55;;;;;;;11.07;7.77;;;8.40;80.30;;;;;;5053773;28;20468;-47
2022/03/29 01:12:24;;;;;;;8.13;6.87;;;8.10;80.20;;;;;;5053592;28;20449;-44
2022/03/29 01:14:53;;;;;;;8.67;7.07;;;7.90;81.00;;;;;;5053691;28;20481;-44
2022/03/29 01:17:38;;;;;;;11.10;6.97;;;7.60;81.90;;;;;;5054614;28;20559;-44
2022/03/29 01:20:09;;;;;;;9.60;8.20;;;7.80;81.90;;;;;;5053566;28;20440;-44
2022/03/29 01:22:41;;;;;;;10.23;7.53;;;8.00;82.30;;;;;;5053345;28;20455;-46
2022/03/29 01:25:10;;;;;;;9.30;6.90;;;8.10;81.00;;;;;;5053705;28;20578;-44
2022/03/29 01:27:38;;;;;;;9.70;6.90;;;8.20;81.10;;;;;;5053470;28;20552;-45
2022/03/29 01:30:06;;;;;;;7.57;6.80;;;8.30;80.80;;;;;;5053163;28;20450;-44
2022/03/29 01:32:35;;;;;;;8.47;6.90;;;8.40;80.30;;;;;;5053348;28;20475;-44
2022/03/29 01:35:04;;;;;;;10.70;8.00;;;8.50;79.20;;;;;;5053248;28;20964;-44
2022/03/29 01:37:31;;;;;;;10.73;7.53;;;8.50;78.80;;;;;;5053096;28;20469;-47
2022/03/29 01:40:00;;;;;;;8.47;7.07;;;8.50;79.00;;;;;;5052855;28;20452;-45
2022/03/29 01:42:27;;;;;;;9.23;7.47;;;8.50;79.60;;;;;;5053056;28;20479;-44
2022/03/29 01:44:53;;;;;;;9.43;7.83;;;8.60;79.80;;;;;;5053023;28;20772;-45
2022/03/29 01:47:21;;;;;;;9.90;7.30;;;8.60;79.70;;;;;;5052871;28;20519;-44
2022/03/29 01:49:48;;;;;;;7.37;6.37;;;8.50;79.20;;;;;;5052867;28;20528;-44
2022/03/29 01:52:16;;;;;;;8.63;7.73;;;8.50;79.30;;;;;;5052929;28;20473;-44
2022/03/29 01:54:44;;;;;;;9.67;6.97;;;8.50;79.90;;;;;;5052711;28;20485;-44
2022/03/29 01:57:12;;;;;;;11.13;7.70;;;8.50;79.50;;;;;;5051397;28;20974;-45
2022/03/29 02:02:24;;;;;;;8.43;6.93;;;8.40;78.90;;;;;;5052691;28;20419;-44
2022/03/29 02:04:51;;;;;;;10.07;7.63;;;8.50;79.50;;;;;;5052320;28;20487;-46
2022/03/29 02:07:18;;;;;;;8.27;6.90;;;8.50;79.80;;;;;;5052538;28;20489;-44
2022/03/29 02:09:45;;;;;;;8.43;7.60;;;8.60;80.10;;;;;;5052620;28;20510;-47
2022/03/29 02:12:13;;;;;;;11.10;8.60;;;8.60;79.70;;;;;;5052597;28;20484;-44
2022/03/29 02:14:41;;;;;;;9.80;8.50;;;8.20;79.50;;;;;;5052671;28;20928;-44
2022/03/29 02:17:08;;;;;;;7.80;7.00;;;8.00;81.10;;;;;;5052323;28;20526;-44
2022/03/29 02:19:35;;;;;;;7.87;7.07;;;7.90;81.50;;;;;;5052553;28;20473;-44
2022/03/29 02:22:02;;;;;;;8.07;7.07;;;7.90;82.10;;;;;;5052253;28;20484;-44
2022/03/29 02:24:29;;;;;;;8.40;6.97;;;7.90;81.30;;;;;;5052218;28;20939;-44
2022/03/29 02:26:56;;;;;;;8.40;7.27;;;7.80;81.80;;;;;;5052130;28;20541;-45
2022/03/29 02:29:24;;;;;;;9.50;8.00;;;7.90;82.90;;;;;;5052556;28;20521;-44
2022/03/29 02:31:51;;;;;;;8.73;7.37;;;8.00;81.80;;;;;;5052017;28;20969;-44
2022/03/29 02:34:18;;;;;;;9.57;7.37;;;7.90;81.10;;;;;;5051889;28;20929;-44
2022/03/29 02:36:45;;;;;;;8.20;7.40;;;8.10;82.40;;;;;;5052339;28;20552;-44
2022/03/29 02:39:12;;;;;;;8.87;7.90;;;8.10;81.30;;;;;;5051656;28;20477;-45
2022/03/29 02:41:39;;;;;;;9.13;7.70;;;8.20;80.70;;;;;;5052071;28;21018;-47
2022/03/29 02:44:06;;;;;;;8.57;7.77;;;8.20;81.40;;;;;;5052098;28;20521;-44
2022/03/29 02:46:35;;;;;;;9.20;7.77;;;8.20;81.40;;;;;;5051860;28;20477;-44
2022/03/29 02:49:02;;;;;;;7.77;7.03;;;8.10;81.00;;;;;;5051547;28;20463;-46
2022/03/29 02:51:29;;;;;;;9.37;7.30;;;8.00;81.20;;;;;;5051994;28;20861;-44
2022/03/29 02:53:56;;;;;;;8.03;6.97;;;8.10;81.50;;;;;;5051974;28;20484;-47
2022/03/29 02:56:22;;;;;;;7.97;7.20;;;8.10;81.50;;;;;;5051759;28;20465;-44
2022/03/29 02:58:49;;;;;;;9.27;7.60;;;7.90;81.30;;;;;;5051501;28;20532;-44
2022/03/29 03:01:17;;;;;;;9.37;7.10;;;8.00;81.20;;;;;;5051096;28;20528;-46
2022/03/29 03:03:45;;;;;;;9.70;7.80;;;7.80;81.00;;;;;;5051648;28;20453;-45
2022/03/29 03:06:12;;;;;;;9.77;7.30;;;7.80;81.30;;;;;;5051486;28;20484;-45
2022/03/29 03:08:39;;;;;;;11.40;7.80;;;7.70;81.60;;;;;;5050978;28;20520;-45
2022/03/29 03:11:06;;;;;;;9.80;8.20;;;7.50;82.10;;;;;;5051292;28;20476;-44
2022/03/29 03:13:33;;;;;;;9.93;6.90;;;7.40;82.60;;;;;;5051602;28;20531;-46
2022/03/29 03:16:00;;;;;;;9.30;7.57;;;7.20;83.20;;;;;;5051510;28;20438;-44
2022/03/29 03:18:27;;;;;;;11.97;8.63;;;7.30;83.70;;;;;;5051289;28;20503;-44
2022/03/29 03:20:55;;;;;;;11.67;7.60;;;7.40;82.90;;;;;;5051270;28;20487;-44
2022/03/29 03:23:22;;;;;;;12.97;8.73;;;7.60;82.90;;;;;;5051262;28;20525;-44
2022/03/29 03:25:50;;;;;;;7.83;7.03;;;7.70;81.70;;;;;;5051507;28;20500;-44
2022/03/29 03:28:17;;;;;;;7.70;6.80;;;7.50;81.50;;;;;;5051440;28;20467;-44
2022/03/29 03:30:44;;;;;;;9.60;8.60;;;7.40;81.90;;;;;;5051123;28;20484;-47
2022/03/29 03:33:11;;;;;;;7.97;7.17;;;7.30;83.10;;;;;;5051269;28;20477;-44
2022/03/29 03:35:38;;;;;;;9.47;7.43;;;7.40;83.10;;;;;;5051685;28;20564;-44
2022/03/29 03:38:07;;;;;;;8.60;7.80;;;7.50;81.50;;;;;;5051294;28;20504;-44
2022/03/29 03:40:34;;;;;;;8.13;7.13;;;7.60;81.40;;;;;;5050967;28;20447;-46
2022/03/29 03:43:02;;;;;;;9.20;7.53;;;7.70;80.70;;;;;;5051197;28;20536;-44
2022/03/29 03:45:29;;;;;;;10.30;8.20;;;7.80;80.80;;;;;;5051447;28;20453;-45
2022/03/29 03:47:56;;;;;;;7.70;6.93;;;8.00;81.70;;;;;;5050932;28;20493;-44
2022/03/29 03:50:23;;;;;;;9.73;7.37;;;8.10;81.40;;;;;;5050928;28;20469;-46
2022/03/29 03:52:51;;;;;;;11.17;8.90;;;8.10;80.70;;;;;;5051180;28;20520;-45
2022/03/29 03:55:19;;;;;;;8.30;7.50;;;8.10;80.40;;;;;;5050317;28;20477;-45
2022/03/29 03:57:46;;;;;;;11.03;7.90;;;8.00;80.40;;;;;;5050963;28;20467;-44
2022/03/29 04:00:14;;;;;;;11.57;8.10;;;8.00;80.00;;;;;;5050971;28;20488;-44
2022/03/29 04:02:41;;;;;;;9.83;8.57;;;8.00;80.70;;;;;;5050555;28;20524;-44
2022/03/29 04:05:12;;;;;;;9.70;8.47;;;8.00;81.00;;;;;;5051229;28;20770;-44
2022/03/29 04:07:39;;;;;;;10.27;8.53;;;8.00;81.10;;;;;;5050289;28;20885;-44
2022/03/29 04:10:07;;;;;;;8.93;6.87;;;7.90;80.50;;;;;;5050486;28;20985;-45
2022/03/29 04:12:35;;;;;;;9.90;8.90;;;7.80;80.50;;;;;;5050881;28;20528;-44
2022/03/29 04:15:02;;;;;;;8.43;7.30;;;7.40;81.30;;;;;;5050947;28;20994;-44
2022/03/29 04:17:31;;;;;;;10.03;9.03;;;7.20;82.00;;;;;;5050515;28;20500;-44
2022/03/29 04:19:59;;;;;;;9.60;8.13;;;7.10;83.00;;;;;;5051795;28;20882;-44
2022/03/29 04:22:26;;;;;;;11.73;8.23;;;7.20;82.70;;;;;;5054680;28;20516;-44
2022/03/29 04:24:53;;;;;;;12.27;8.10;;;7.40;82.90;;;;;;5054455;28;20964;-44
2022/03/29 04:27:20;;;;;;;9.00;7.80;;;7.30;82.00;;;;;;5054636;28;20493;-44
2022/03/29 04:29:48;;;;;;;11.47;10.27;;;7.00;82.10;;;;;;5054179;28;20528;-44
2022/03/29 04:32:15;;;;;;;11.47;10.20;;;6.90;83.00;;;;;;5054240;28;20449;-44
2022/03/29 04:34:44;;;;;;;13.50;11.50;;;7.10;83.60;;;;;;5054454;28;20473;-45
2022/03/29 04:37:11;;;;;;;10.67;9.50;;;7.20;83.50;;;;;;5054443;28;20822;-44
2022/03/29 04:39:38;;;;;;;9.87;8.57;;;7.40;82.60;;;;;;5054204;28;20999;-44
2022/03/29 04:42:06;;;;;;;9.80;8.07;;;7.30;82.10;;;;;;5053931;28;20473;-44
2022/03/29 04:44:34;;;;;;;8.53;7.63;;;7.00;82.90;;;;;;5054325;28;20441;-44
2022/03/29 04:47:03;;;;;;;10.70;9.27;;;6.90;83.40;;;;;;5054021;28;20474;-45
2022/03/29 04:49:30;;;;;;;10.23;8.53;;;6.70;83.40;;;;;;5053684;28;20495;-44
2022/03/29 04:51:57;;;;;;;8.50;7.70;;;6.90;83.60;;;;;;5054251;28;20473;-44
2022/03/29 04:54:24;;;;;;;11.77;8.93;;;6.90;83.60;;;;;;5054053;28;20472;-44
2022/03/29 04:56:51;;;;;;;9.30;7.67;;;6.80;83.80;;;;;;5053907;28;20553;-44
2022/03/29 04:59:18;;;;;;;12.70;9.27;;;6.70;83.70;;;;;;5053763;28;20965;-44
2022/03/29 05:01:45;;;;;;;12.30;10.00;;;6.80;84.20;;;;;;5053848;28;20926;-45
2022/03/29 05:04:14;;;;;;;12.43;9.47;;;7.10;84.60;;;;;;5053885;28;20465;-44
2022/03/29 05:06:41;;;;;;;11.20;9.27;;;7.20;83.80;;;;;;5053712;28;20546;-44
2022/03/29 05:09:08;;;;;;;11.00;8.17;;;7.30;83.20;;;;;;5053510;28;20453;-44
2022/03/29 05:11:35;;;;;;;10.30;8.57;;;7.50;83.20;;;;;;5053492;28;20877;-45
2022/03/29 05:14:02;;;;;;;10.20;8.27;;;7.50;82.90;;;;;;5053935;28;20845;-44
2022/03/29 05:16:29;;;;;;;11.67;7.80;;;7.30;82.40;;;;;;5053863;28;20476;-44
2022/03/29 05:18:56;;;;;;;9.73;8.43;;;7.20;83.10;;;;;;5053614;28;20531;-44
2022/03/29 05:21:25;;;;;;;10.47;8.60;;;6.80;83.80;;;;;;5053398;28;20862;-45
2022/03/29 05:23:52;;;;;;;12.37;10.87;;;6.70;85.50;;;;;;5053342;28;20876;-44
2022/03/29 05:26:19;;;;;;;8.87;8.03;;;6.90;86.10;;;;;;5053400;28;20993;-44
2022/03/29 05:28:45;;;;;;;15.13;13.57;;;6.90;85.80;;;;;;5053390;28;20520;-45
2022/03/29 05:31:12;;;;;;;11.13;9.07;;;7.10;86.00;;;;;;5052840;28;20528;-44
2022/03/29 05:33:40;;;;;;;12.37;9.20;;;7.20;84.90;;;;;;5053262;28;20916;-44
2022/03/29 05:36:07;;;;;;;10.07;7.53;;;7.20;85.40;;;;;;5053160;28;20915;-44
2022/03/29 05:38:35;;;;;;;10.50;8.70;;;7.30;85.50;;;;;;5052888;28;20544;-47
2022/03/29 05:41:02;;;;;;;9.77;8.53;;;7.40;85.70;;;;;;5052933;28;20860;-45
2022/03/29 05:43:29;;;;;;;10.53;8.70;;;7.40;86.10;;;;;;5053332;28;20545;-44
2022/03/29 05:48:52;;;;;;;13.00;8.77;;;7.50;86.00;;;;;;5052886;28;20439;-44
2022/03/29 05:51:19;;;;;;;9.40;8.17;;;7.60;85.90;;;;;;5052866;28;20528;-44
2022/03/29 05:53:48;;;;;;;9.13;8.20;;;7.50;85.30;;;;;;5053041;28;20443;-44
2022/03/29 05:56:15;;;;;;;11.10;8.70;;;7.50;84.80;;;;;;5052582;28;20568;-44
2022/03/29 05:58:42;;;;;;;10.27;9.27;;;7.60;84.70;;;;;;5052834;28;20484;-44
2022/03/29 06:01:09;;;;;;;12.50;9.97;;;7.70;84.20;;;;;;5052402;28;20528;-47
2022/03/29 06:03:36;;;;;;;11.00;9.43;;;7.70;84.80;;;;;;5052708;28;20532;-44
2022/03/29 06:06:04;;;;;;;13.30;11.00;;;7.50;86.20;;;;;;5052757;28;21108;-44
2022/03/29 06:08:32;;;;;;;13.23;9.20;;;7.40;86.50;;;;;;5052389;28;20489;-44
2022/03/29 06:11:00;;;;;;;11.60;9.77;;;7.20;86.70;;;;;;5052424;28;20524;-44
2022/03/29 06:13:28;;;;;;;8.80;8.03;;;7.10;86.30;;;;;;5052584;28;20451;-44
2022/03/29 06:15:55;;;;;;;9.57;8.57;;;7.10;86.40;;;;;;5052366;28;20559;-44
2022/03/29 06:18:22;;;;;;;11.83;9.33;;;7.40;85.80;;;;;;5052412;28;20508;-44
2022/03/29 06:20:49;;;;;;;9.23;8.37;;;7.60;86.70;;;;;;5052007;28;20524;-44
2022/03/29 06:23:16;;;;;;;11.70;10.13;;;7.80;85.80;;;;;;5052049;28;20970;-44
2022/03/29 06:25:44;;;;;;;22.33;13.70;;;8.00;87.10;;;;;;5051333;28;20445;-44
2022/03/29 06:28:14;;;;;;;16.33;12.27;;;8.20;86.30;;;;;;5051982;28;20505;-46
2022/03/29 06:30:40;;;;;;;17.20;11.37;;;8.20;85.40;;;;;;5051737;28;20929;-44
2022/03/29 06:33:09;;;;;;;17.43;12.80;;;8.30;85.00;;;;;;5052344;28;20473;-44
2022/03/29 06:35:37;;;;;;;16.20;12.57;;;8.20;86.00;;;;;;5052286;28;20484;-45
2022/03/29 06:38:05;;;;;;;14.20;12.73;;;7.90;85.80;;;;;;5051977;28;20500;-44
2022/03/29 06:40:32;;;;;;;14.97;10.60;;;7.70;87.00;;;;;;5051816;28;20522;-44
2022/03/29 06:43:01;;;;;;;12.90;10.90;;;7.90;89.40;;;;;;5051539;28;20524;-44
2022/03/29 06:45:29;;;;;;;16.33;10.80;;;8.00;89.20;;;;;;5051778;28;20507;-44
2022/03/29 06:47:58;;;;;;;15.03;9.43;;;8.20;89.40;;;;;;5052054;28;20501;-45
2022/03/29 06:50:25;;;;;;;17.70;13.10;;;8.40;86.30;;;;;;5051621;28;20468;-45
2022/03/29 06:52:52;;;;;;;15.30;11.83;;;8.60;85.50;;;;;;5051725;28;20535;-44
2022/03/29 06:55:19;;;;;;;16.07;13.77;;;8.60;86.50;;;;;;5051204;28;20509;-45
2022/03/29 06:57:46;;;;;;;15.30;11.30;;;8.40;85.10;;;;;;5051748;28;20465;-45
2022/03/29 07:00:15;;;;;;;12.23;9.07;;;8.30;85.30;;;;;;5051368;28;20445;-46
2022/03/29 07:02:43;;;;;;;11.33;9.10;;;8.30;88.30;;;;;;5051507;28;20437;-44
2022/03/29 07:05:11;;;;;;;19.13;13.87;;;8.60;89.10;;;;;;5051460;28;20480;-44
2022/03/29 07:07:38;;;;;;;32.73;15.40;;;8.70;89.20;;;;;;5051014;28;20540;-45
2022/03/29 07:12:51;;;;;;;22.53;15.73;;;9.00;86.00;;;;;;5051500;28;20420;-47
2022/03/29 07:15:19;;;;;;;16.03;12.60;;;9.20;84.70;;;;;;5051291;28;20504;-47
2022/03/29 07:17:47;;;;;;;18.20;12.57;;;9.30;84.60;;;;;;5052132;28;20505;-44
2022/03/29 07:20:17;;;;;;;15.67;12.77;;;9.40;84.20;;;;;;5051336;28;20529;-48
2022/03/29 07:22:44;;;;;;;16.00;12.67;;;9.40;84.00;;;;;;5051404;28;20604;-45
2022/03/29 07:25:12;;;;;;;16.20;13.23;;;9.50;84.60;;;;;;5050245;28;20442;-46
2022/03/29 07:27:40;;;;;;;13.87;11.67;;;9.50;82.30;;;;;;5049729;28;20903;-47
2022/03/29 07:30:10;;;;;;;15.87;12.40;;;9.60;82.10;;;;;;5049471;28;20453;-45
2022/03/29 07:32:43;;;;;;;14.27;12.77;;;9.70;83.30;;;;;;5049584;28;20446;-45
2022/03/29 07:35:12;;;;;;;15.57;12.10;;;9.80;82.60;;;;;;5050575;28;20500;-44
2022/03/29 07:37:39;;;;;;;14.20;11.70;;;9.90;84.20;;;;;;5051013;28;20501;-44
2022/03/29 07:40:08;;;;;;;26.37;12.07;;;10.00;83.30;;;;;;5050822;28;20477;-46
2022/03/29 07:42:36;;;;;;;18.63;11.97;;;10.00;82.60;;;;;;5050984;28;20450;-44
2022/03/29 07:45:06;;;;;;;12.90;11.63;;;10.00;82.30;;;;;;5050977;28;20444;-44
2022/03/29 07:47:34;;;;;;;14.63;11.93;;;10.00;82.70;;;;;;5050676;28;20466;-45
2022/03/29 07:50:06;;;;;;;14.70;11.43;;;10.10;83.40;;;;;;5050916;28;20562;-46
2022/03/29 07:52:34;;;;;;;13.43;10.93;;;10.20;83.40;;;;;;5050723;28;20507;-46
2022/03/29 07:55:01;;;;;;;13.67;12.00;;;10.20;83.90;;;;;;5052954;28;20540;-46
2022/03/29 07:57:28;;;;;;;14.87;11.43;;;10.40;84.10;;;;;;5054243;28;20555;-45
2022/03/29 07:59:55;;;;;;;16.90;12.40;;;10.40;85.00;;;;;;5054483;28;20480;-46
2022/03/29 08:02:22;;;;;;;13.10;11.80;;;10.60;85.10;;;;;;5054929;28;20516;-45
2022/03/29 08:04:49;;;;;;;12.27;11.07;;;10.70;83.80;;;;;;5054898;28;20452;-47
2022/03/29 08:07:16;;;;;;;14.53;12.27;;;10.80;82.40;;;;;;5054835;28;20492;-45
2022/03/29 08:09:45;;;;;;;15.57;11.67;;;10.80;80.00;;;;;;5054701;28;20475;-50
2022/03/29 08:12:12;;;;;;;15.53;12.43;;;10.90;79.30;;;;;;5054519;28;20480;-47
2022/03/29 08:14:39;;;;;;;12.67;11.20;;;10.90;78.90;;;;;;5054777;28;20524;-44
2022/03/29 08:17:06;;;;;;;14.10;11.70;;;10.90;79.20;;;;;;5054243;28;20873;-44
2022/03/29 08:19:33;;;;;;;13.43;11.20;;;10.90;79.70;;;;;;5054858;28;20476;-44
2022/03/29 08:22:00;;;;;;;13.23;11.33;;;10.90;78.70;;;;;;5054727;28;20484;-44
2022/03/29 08:24:26;;;;;;;13.87;12.13;;;10.90;78.80;;;;;;5054622;28;20483;-48
2022/03/29 08:26:56;;;;;;;15.10;11.20;;;10.90;78.00;;;;;;5054546;28;20548;-43
2022/03/29 08:29:23;;;;;;;11.03;9.70;;;10.90;76.10;;;;;;5054482;28;20455;-44
2022/03/29 08:31:52;;;;;;;10.87;9.50;;;10.80;73.90;;;;;;5054639;28;20484;-43
2022/03/29 08:34:19;;;;;;;15.43;10.40;;;10.90;71.90;;;;;;5054509;28;20811;-44
2022/03/29 08:36:49;;;;;;;12.23;10.93;;;11.00;73.80;;;;;;5054216;28;20481;-47
2022/03/29 08:39:16;;;;;;;16.20;10.97;;;10.90;71.30;;;;;;5054558;28;20477;-44
2022/03/29 08:41:47;;;;;;;15.23;11.00;;;10.90;71.70;;;;;;5054464;28;20484;-44
2022/03/29 08:44:15;;;;;;;12.03;10.10;;;10.90;73.50;;;;;;5054214;28;20527;-44
2022/03/29 08:46:42;;;;;;;13.27;10.87;;;11.00;74.40;;;;;;5054076;28;20496;-47
2022/03/29 08:49:10;;;;;;;16.87;11.00;;;11.00;74.30;;;;;;5054232;28;20496;-43
2022/03/29 08:51:39;;;;;;;13.00;11.03;;;11.10;73.90;;;;;;5054559;28;20473;-43
2022/03/29 08:54:07;;;;;;;13.73;11.73;;;11.10;73.30;;;;;;5054063;28;20477;-45
2022/03/29 08:56:34;;;;;;;12.20;10.90;;;11.20;72.30;;;;;;5053945;28;20484;-43
2022/03/29 08:59:02;;;;;;;13.07;10.50;;;11.30;70.00;;;;;;5053102;28;20465;-44
2022/03/29 09:01:30;;;;;;;12.13;9.90;;;11.40;70.80;;;;;;5053569;28;20766;-46
2022/03/29 09:04:08;;;;;;;11.10;10.00;;;11.50;70.40;;;;;;5054311;28;20477;-43
2022/03/29 09:06:54;;;;;;;15.43;10.80;;;11.60;68.60;;;;;;5053253;28;20469;-43
2022/03/29 09:09:22;;;;;;;12.50;10.20;;;11.70;67.30;;;;;;5053608;28;20445;-47
2022/03/29 09:11:50;;;;;;;12.37;11.07;;;12.00;66.60;;;;;;5053405;28;20473;-46
2022/03/29 09:14:19;;;;;;;12.13;10.80;;;12.10;66.10;;;;;;5053590;28;20453;-43
2022/03/29 09:16:47;;;;;;;14.67;10.20;;;12.20;66.40;;;;;;5053689;28;20689;-44
2022/03/29 09:19:14;;;;;;;13.63;10.87;;;12.40;68.10;;;;;;5053273;28;20485;-44
2022/03/29 09:21:42;;;;;;;11.70;10.47;;;12.60;69.80;;;;;;5053499;28;20528;-44
2022/03/29 09:24:11;;;;;;;12.23;10.53;;;12.70;69.40;;;;;;5053568;28;20585;-44
2022/03/29 09:26:40;;;;;;;13.77;11.03;;;12.90;68.00;;;;;;5053428;28;20988;-44
2022/03/29 09:29:17;;;;;;;11.67;10.10;;;13.00;65.00;;;;;;5053182;28;21009;-47
2022/03/29 09:31:47;;;;;;;11.87;10.53;;;13.10;63.80;;;;;;5052313;28;20469;-43
2022/03/29 09:34:16;;;;;;;12.07;10.73;;;13.10;62.30;;;;;;5051860;28;20460;-44
2022/03/29 09:36:46;;;;;;;10.83;9.70;;;13.20;63.40;;;;;;5051612;28;21026;-47
2022/03/29 09:39:34;;;;;;;10.50;9.60;;;13.40;64.50;;;;;;5051618;28;20479;-49
2022/03/29 09:42:03;;;;;;;14.10;9.60;;;13.70;64.10;;;;;;5051609;28;20441;-51
2022/03/29 09:44:41;;;;;;;11.87;10.00;;;14.00;62.60;;;;;;5051527;28;20450;-45
2022/03/29 09:47:10;;;;;;;17.20;10.37;;;14.10;62.10;;;;;;5052570;28;20457;-48
2022/03/29 09:49:55;;;;;;;11.57;10.47;;;14.30;58.80;;;;;;5052844;28;20441;-45
2022/03/29 09:52:24;;;;;;;12.87;10.50;;;14.30;58.90;;;;;;5052964;28;20475;-45
2022/03/29 09:55:13;;;;;;;13.03;10.77;;;14.40;58.50;;;;;;5053062;28;20452;-45
2022/03/29 09:57:44;;;;;;;13.00;11.77;;;14.60;59.70;;;;;;5052566;28;20489;-45
2022/03/29 10:00:12;;;;;;;13.00;11.60;;;14.80;58.80;;;;;;5052886;28;20469;-48
2022/03/29 10:02:42;;;;;;;16.20;12.03;;;15.00;58.50;;;;;;5052937;28;20441;-46
2022/03/29 10:05:11;;;;;;;13.70;10.60;;;15.30;57.60;;;;;;5052767;28;20473;-44
2022/03/29 10:07:43;;;;;;;12.07;10.80;;;15.40;55.30;;;;;;5052908;28;20527;-47
2022/03/29 10:10:10;;;;;;;12.13;10.13;;;15.40;56.20;;;;;;5052184;28;20449;-45
2022/03/29 10:12:38;;;;;;;12.60;11.40;;;15.30;54.80;;;;;;5052325;28;20473;-49
2022/03/29 10:15:07;;;;;;;12.53;10.77;;;15.50;55.90;;;;;;5052776;28;20476;-45
2022/03/29 10:17:34;;;;;;;11.53;10.33;;;15.60;55.40;;;;;;5051363;28;21085;-47
2022/03/29 10:20:06;;;;;;;16.07;10.40;;;15.60;55.30;;;;;;5052181;28;20476;-46
2022/03/29 10:22:36;;;;;;;12.30;11.10;;;15.60;55.50;;;;;;5052616;28;20449;-45
2022/03/29 10:25:04;;;;;;;13.40;9.93;;;15.70;55.80;;;;;;5052364;28;20528;-46
2022/03/29 10:27:31;;;;;;;12.57;10.13;;;15.60;55.60;;;;;;5052288;28;20489;-47
2022/03/29 10:29:58;;;;;;;13.57;9.30;;;15.70;55.40;;;;;;5052356;28;20532;-45
2022/03/29 10:32:29;;;;;;;12.83;10.97;;;15.80;57.30;;;;;;5051618;28;20465;-48
2022/03/29 10:35:10;;;;;;;17.63;10.83;;;15.90;56.00;;;;;;5051125;28;20437;-45
2022/03/29 10:37:54;;;;;;;13.23;10.57;;;16.00;58.30;;;;;;5049910;28;20912;-45
2022/03/29 10:40:36;;;;;;;12.10;10.40;;;16.10;56.80;;;;;;5050490;28;20434;-45
2022/03/29 10:43:29;;;;;;;14.80;11.53;;;16.10;54.90;;;;;;5050675;28;20952;-47
2022/03/29 10:45:58;;;;;;;13.70;10.80;;;15.90;57.10;;;;;;5037592;28;20469;-46
2022/03/29 10:48:25;;;;;;;16.90;11.50;;;15.70;56.80;;;;;;5051433;28;20476;-45
2022/03/29 10:50:58;;;;;;;12.23;11.10;;;15.70;56.50;;;;;;5051476;28;20512;-49
2022/03/29 10:53:27;;;;;;;14.83;11.43;;;15.80;57.10;;;;;;5051434;28;20437;-45
2022/03/29 10:56:19;;;;;;;13.00;11.60;;;16.00;57.50;;;;;;5050621;28;20480;-46
2022/03/29 10:59:10;;;;;;;14.57;11.90;;;16.10;57.30;;;;;;5051688;28;20472;-45
2022/03/29 11:01:39;;;;;;;12.30;10.33;;;16.30;56.30;;;;;;5051359;28;20472;-46
2022/03/29 11:04:08;;;;;;;14.83;11.30;;;16.40;56.70;;;;;;5051656;28;20441;-45
2022/03/29 11:06:37;;;;;;;13.50;12.10;;;16.30;55.60;;;;;;5051284;28;20511;-49
2022/03/29 11:09:05;;;;;;;11.90;10.67;;;16.30;54.60;;;;;;5050389;28;20442;-46
2022/03/29 11:11:40;;;;;;;13.17;11.33;;;16.40;54.60;;;;;;5051306;28;20477;-45
2022/03/29 11:14:39;;;;;;;13.53;10.30;;;16.50;55.10;;;;;;5051500;28;20471;-45
2022/03/29 11:17:40;;;;;;;12.43;10.30;;;16.50;53.10;;;;;;5050774;28;20513;-46
2022/03/29 11:20:29;;;;;;;13.73;11.43;;;16.60;56.00;;;;;;5050975;28;20444;-45
2022/03/29 11:22:59;;;;;;;11.90;10.80;;;16.60;55.20;;;;;;5051325;28;20437;-46
2022/03/29 11:25:26;;;;;;;15.43;12.47;;;16.50;54.70;;;;;;5049794;28;20469;-45
2022/03/29 11:27:53;;;;;;;17.17;11.03;;;16.60;55.30;;;;;;5049679;28;20484;-46
2022/03/29 11:30:20;;;;;;;16.50;11.60;;;16.70;55.60;;;;;;5049289;28;20437;-45
2022/03/29 11:32:47;;;;;;;14.27;12.77;;;16.70;53.00;;;;;;5050117;28;20527;-46
2022/03/29 11:35:18;;;;;;;14.73;11.90;;;16.80;52.90;;;;;;5050259;28;20437;-45
2022/03/29 11:37:49;;;;;;;13.63;11.60;;;16.90;52.40;;;;;;5049968;28;20481;-49
2022/03/29 11:40:19;;;;;;;15.43;12.13;;;16.90;52.20;;;;;;5050577;28;20451;-46
2022/03/29 11:42:49;;;;;;;17.50;12.77;;;16.90;52.40;;;;;;5050997;28;20441;-45
2022/03/29 11:45:17;;;;;;;14.17;11.63;;;17.10;54.30;;;;;;5051190;28;20441;-48
2022/03/29 11:47:53;;;;;;;13.47;11.53;;;17.10;52.40;;;;;;5051109;28;20518;-48
2022/03/29 11:50:29;;;;;;;14.10;11.67;;;17.20;52.90;;;;;;5050694;28;20449;-46
2022/03/29 11:52:56;;;;;;;13.23;10.87;;;17.30;52.80;;;;;;5050856;28;20933;-46
2022/03/29 11:55:25;;;;;;;12.90;11.70;;;17.30;51.60;;;;;;5050620;28;20442;-45
2022/03/29 11:57:52;;;;;;;13.00;10.03;;;17.30;53.50;;;;;;5051112;28;20488;-45
2022/03/29 12:00:24;;;;;;;15.20;11.70;;;17.30;51.70;;;;;;5050723;28;20445;-45
2022/03/29 12:02:51;;;;;;;12.87;11.33;;;17.30;51.50;;;;;;5050736;28;20445;-48
2022/03/29 12:05:22;;;;;;;15.13;12.10;;;17.30;52.40;;;;;;5050533;28;20528;-45
2022/03/29 12:07:55;;;;;;;13.40;12.00;;;17.40;52.60;;;;;;5050915;28;20493;-48
2022/03/29 12:10:33;;;;;;;13.33;11.40;;;17.40;54.00;;;;;;5050566;28;20840;-45
2022/03/29 12:13:00;;;;;;;16.07;11.80;;;17.40;53.70;;;;;;5051231;28;20495;-46
2022/03/29 12:15:27;;;;;;;15.17;12.33;;;17.40;55.80;;;;;;5050539;28;20477;-46
2022/03/29 12:18:40;;;;;;;14.00;11.03;;;17.60;53.20;;;;;;5050476;28;20758;-50
2022/03/29 12:20:46;;;;;;;23.17;12.37;;;17.70;51.70;;;;;;5050276;28;20996;-45
2022/03/29 12:23:18;;;;;;;11.80;10.53;;;17.80;49.30;;;;;;5050627;28;20477;-45
2022/03/29 12:25:48;;;;;;;11.50;10.00;;;17.70;50.00;;;;;;5050657;28;20473;-46
2022/03/29 12:28:15;;;;;;;11.73;10.03;;;17.70;46.40;;;;;;5050318;28;20563;-46
2022/03/29 12:30:43;;;;;;;14.40;9.87;;;17.70;48.80;;;;;;5050299;28;20483;-49
2022/03/29 12:33:10;;;;;;;13.77;10.80;;;17.80;47.50;;;;;;5050326;28;20942;-45
2022/03/29 12:35:37;;;;;;;12.70;10.10;;;17.80;47.60;;;;;;5051086;28;20480;-48
2022/03/29 12:38:05;;;;;;;9.97;8.97;;;17.90;50.50;;;;;;5050473;28;20520;-45
2022/03/29 12:40:32;;;;;;;14.63;9.67;;;17.90;46.30;;;;;;5050726;28;20496;-46
2022/03/29 12:43:05;;;;;;;12.00;9.83;;;17.80;48.00;;;;;;5053904;28;20528;-46
2022/03/29 12:45:33;;;;;;;11.03;8.67;;;17.80;46.60;;;;;;5054098;28;20942;-43
2022/03/29 12:48:02;;;;;;;11.40;8.87;;;17.60;43.50;;;;;;5054459;28;20497;-43
2022/03/29 12:50:29;;;;;;;13.20;10.10;;;17.50;44.70;;;;;;5053787;28;20536;-43
2022/03/29 12:53:04;;;;;;;12.93;10.40;;;17.30;45.00;;;;;;5053882;28;20753;-43
2022/03/29 12:55:31;;;;;;;90.13;18.63;;;17.40;44.80;;;;;;5053763;28;20472;-43
2022/03/29 12:58:01;;;;;;;12.60;9.60;;;17.50;43.20;;;;;;5053745;28;21032;-43